createdAt,value
2022-12-03T00:00:26.000Z,7.05
2022-12-03T00:02:55.252Z,9.98
2022-12-03T00:05:24.455Z,54.97
2022-12-03T00:07:53.654Z,16.17
2022-12-03T00:10:22.861Z,8.50
2022-12-03T00:12:52.025Z,7.10
2022-12-03T00:15:21.992Z,8.30
2022-12-03T00:17:52.672Z,10.20
2022-12-03T00:20:26.015Z,7.15
2022-12-03T00:22:55.325Z,9.45
2022-12-03T00:25:27.178Z,7.13
2022-12-03T00:27:56.277Z,5.93
2022-12-03T00:30:25.378Z,5.68
2022-12-03T00:32:54.467Z,8.07
2022-12-03T00:35:23.543Z,7.85
2022-12-03T00:37:52.670Z,5.97
2022-12-03T00:40:21.853Z,7.15
2022-12-03T00:42:50.920Z,8.32
2022-12-03T00:45:21.063Z,8.77
2022-12-03T00:47:50.368Z,7.82
2022-12-03T00:50:19.699Z,7.57
2022-12-03T00:52:48.945Z,9.23
2022-12-03T00:55:18.702Z,9.65
2022-12-03T00:57:48.082Z,9.02
2022-12-03T01:00:17.926Z,10.18
2022-12-03T01:02:47.017Z,9.00
2022-12-03T01:05:16.228Z,12.45
2022-12-03T01:07:47.069Z,12.27
2022-12-03T01:10:16.637Z,14.55
2022-12-03T01:12:45.855Z,13.18
2022-12-03T01:15:15.857Z,13.20
2022-12-03T01:17:45.149Z,12.05
2022-12-03T01:20:15.114Z,12.77
2022-12-03T01:22:46.918Z,12.90
2022-12-03T01:25:16.277Z,12.02
2022-12-03T01:27:45.519Z,10.77
2022-12-03T01:30:18.822Z,10.50
2022-12-03T01:32:48.082Z,12.18
2022-12-03T01:35:19.093Z,14.57
2022-12-03T01:37:53.573Z,12.23
2022-12-03T01:40:29.249Z,12.30
2022-12-03T01:43:04.049Z,10.35
2022-12-03T01:45:37.507Z,11.45
2022-12-03T01:48:09.125Z,8.43
2022-12-03T01:50:43.215Z,6.45
2022-12-03T01:53:19.941Z,6.15
2022-12-03T01:56:22.694Z,5.53
2022-12-03T01:58:54.989Z,5.00
2022-12-03T02:01:29.969Z,5.80
2022-12-03T02:04:04.578Z,5.28
2022-12-03T02:06:33.840Z,5.10
2022-12-03T02:09:06.516Z,3.78
2022-12-03T02:11:41.150Z,4.82
2022-12-03T02:14:19.343Z,5.05
2022-12-03T02:16:49.628Z,4.70
2022-12-03T02:19:33.113Z,4.85
2022-12-03T02:22:12.436Z,5.68
2022-12-03T02:25:11.173Z,4.80
2022-12-03T02:27:41.226Z,3.95
2022-12-03T02:30:12.732Z,3.50
2022-12-03T02:32:42.285Z,3.67
2022-12-03T02:35:22.491Z,3.85
2022-12-03T02:38:19.583Z,5.15
2022-12-03T02:40:52.837Z,3.17
2022-12-03T02:43:23.984Z,2.47
2022-12-03T02:45:57.502Z,3.50
2022-12-03T02:48:39.583Z,2.65
2022-12-03T02:51:12.196Z,3.55
2022-12-03T02:53:47.511Z,2.63
2022-12-03T02:56:24.731Z,2.97
2022-12-03T02:58:59.731Z,3.28
2022-12-03T03:01:29.396Z,2.42
2022-12-03T03:03:59.795Z,2.35
2022-12-03T03:06:29.340Z,2.35
2022-12-03T03:08:59.475Z,2.28
2022-12-03T03:11:29.333Z,2.33
2022-12-03T03:13:58.591Z,1.58
2022-12-03T03:16:43.988Z,2.42
2022-12-03T03:19:14.010Z,2.08
2022-12-03T03:21:43.243Z,2.47
2022-12-03T03:24:12.586Z,1.65
2022-12-03T03:26:41.780Z,1.67
2022-12-03T03:29:11.272Z,1.92
2022-12-03T03:31:41.971Z,1.10
2022-12-03T03:34:12.342Z,1.08
2022-12-03T03:36:42.593Z,1.73
2022-12-03T03:39:12.332Z,1.05
2022-12-03T03:41:42.487Z,1.50
2022-12-03T03:44:14.873Z,0.93
2022-12-03T03:46:45.228Z,1.90
2022-12-03T03:49:14.958Z,0.90
2022-12-03T03:51:44.514Z,1.48
2022-12-03T03:54:14.244Z,1.08
2022-12-03T03:56:43.901Z,1.13
2022-12-03T03:59:15.047Z,0.70
2022-12-03T04:01:47.653Z,3.15
2022-12-03T04:04:24.900Z,0.63
2022-12-03T04:06:54.454Z,0.82
2022-12-03T04:09:23.585Z,1.75
2022-12-03T04:12:11.228Z,2.67
2022-12-03T04:14:40.398Z,1.27
2022-12-03T04:17:09.935Z,0.93
2022-12-03T04:19:39.306Z,0.50
2022-12-03T04:22:26.402Z,8.52
2022-12-03T04:25:15.403Z,0.50
2022-12-03T04:28:03.292Z,1.65
2022-12-03T04:30:32.577Z,0.70
2022-12-03T04:33:20.086Z,0.90
2022-12-03T04:35:49.846Z,0.90
2022-12-03T04:38:19.191Z,0.82
2022-12-03T04:41:05.033Z,0.30
2022-12-03T04:43:56.402Z,1.42
2022-12-03T04:46:25.580Z,0.50
2022-12-03T04:48:54.759Z,0.80
2022-12-03T04:51:23.945Z,0.77
2022-12-03T04:53:53.324Z,0.82
2022-12-03T04:56:22.492Z,0.82
2022-12-03T04:58:54.844Z,0.73
2022-12-03T05:01:24.302Z,0.85
2022-12-03T05:03:53.469Z,0.73
2022-12-03T05:06:23.009Z,0.80
2022-12-03T05:08:52.202Z,0.90
2022-12-03T05:11:21.372Z,0.77
2022-12-03T05:13:52.192Z,0.70
2022-12-03T05:16:22.221Z,0.75
2022-12-03T05:18:51.451Z,0.77
2022-12-03T05:21:21.556Z,0.52
2022-12-03T05:23:52.223Z,0.85
2022-12-03T05:26:21.407Z,0.65
2022-12-03T05:28:50.957Z,1.23
2022-12-03T05:31:20.406Z,1.38
2022-12-03T05:33:49.839Z,0.30
2022-12-03T05:36:19.383Z,0.50
2022-12-03T05:38:48.638Z,0.70
2022-12-03T05:41:35.771Z,0.60
2022-12-03T05:44:04.995Z,0.55
2022-12-03T05:46:34.574Z,0.63
2022-12-03T05:49:03.793Z,0.38
2022-12-03T05:51:32.993Z,0.70
2022-12-03T05:54:02.155Z,0.68
2022-12-03T05:56:31.310Z,0.40
2022-12-03T05:59:00.496Z,0.70
2022-12-03T06:01:29.637Z,6.57
2022-12-03T06:03:58.878Z,0.60
2022-12-03T06:06:28.277Z,0.50
2022-12-03T06:08:57.488Z,0.70
2022-12-03T06:11:26.649Z,0.90
2022-12-03T06:13:56.013Z,0.88
2022-12-03T06:16:25.826Z,0.68
2022-12-03T06:18:55.057Z,0.40
2022-12-03T06:21:24.268Z,0.52
2022-12-03T06:23:53.394Z,0.75
2022-12-03T06:26:22.698Z,0.40
2022-12-03T06:28:51.889Z,1.02
2022-12-03T06:31:21.093Z,0.50
2022-12-03T06:33:50.268Z,0.73
2022-12-03T06:36:23.053Z,0.35
2022-12-03T06:38:52.738Z,1.50
2022-12-03T06:41:22.075Z,0.50
2022-12-03T06:43:51.211Z,0.45
2022-12-03T06:46:20.419Z,0.40
2022-12-03T06:48:49.671Z,0.50
2022-12-03T06:51:18.843Z,0.50
2022-12-03T06:53:48.019Z,0.43
2022-12-03T06:56:21.536Z,0.45
2022-12-03T06:58:51.795Z,0.90
2022-12-03T07:01:21.337Z,0.82
2022-12-03T07:03:50.560Z,0.60
2022-12-03T07:06:19.784Z,1.00
2022-12-03T07:08:49.651Z,0.50
2022-12-03T07:11:41.001Z,0.60
2022-12-03T07:14:14.957Z,0.40
2022-12-03T07:16:44.636Z,1.17
2022-12-03T07:19:14.031Z,0.60
2022-12-03T07:21:43.469Z,0.70
2022-12-03T07:24:13.243Z,0.30
2022-12-03T07:26:42.378Z,0.60
2022-12-03T07:29:11.565Z,0.50
2022-12-03T07:31:40.754Z,0.40
2022-12-03T07:34:10.065Z,0.30
2022-12-03T07:36:39.422Z,0.30
2022-12-03T07:39:08.646Z,0.45
2022-12-03T07:41:37.851Z,1.50
2022-12-03T07:44:13.951Z,0.65
2022-12-03T07:46:44.359Z,0.77
2022-12-03T07:49:13.852Z,0.60
2022-12-03T07:51:43.846Z,0.60
2022-12-03T07:54:13.000Z,1.13
2022-12-03T07:56:42.395Z,0.45
2022-12-03T07:59:11.524Z,0.90
2022-12-03T08:01:40.904Z,0.98
2022-12-03T08:04:12.306Z,0.63
2022-12-03T08:06:43.491Z,0.55
2022-12-03T08:09:16.031Z,0.80
2022-12-03T08:11:50.247Z,0.60
2022-12-03T08:14:22.005Z,0.77
2022-12-03T08:16:52.127Z,0.60
2022-12-03T08:19:21.813Z,0.70
2022-12-03T08:21:52.278Z,0.90
2022-12-03T08:24:23.871Z,1.75
2022-12-03T08:26:53.039Z,0.55
2022-12-03T08:29:22.691Z,0.40
2022-12-03T08:31:58.498Z,0.52
2022-12-03T08:34:32.573Z,0.77
2022-12-03T08:37:14.256Z,0.43
2022-12-03T08:39:56.093Z,0.77
2022-12-03T08:42:42.972Z,0.70
2022-12-03T08:45:41.375Z,0.40
2022-12-03T08:48:34.106Z,0.43
2022-12-03T08:51:26.028Z,0.55
2022-12-03T08:54:12.915Z,1.10
2022-12-03T08:56:44.344Z,0.40
2022-12-03T08:59:33.518Z,0.30
2022-12-03T09:02:03.200Z,0.38
2022-12-03T09:04:48.739Z,0.43
2022-12-03T09:07:17.973Z,0.50
2022-12-03T09:09:47.194Z,0.82
2022-12-03T09:12:16.748Z,1.02
2022-12-03T09:14:45.930Z,0.90
2022-12-03T09:17:15.071Z,0.95
2022-12-03T09:19:46.448Z,1.33
2022-12-03T09:22:18.201Z,0.85
2022-12-03T09:24:47.551Z,0.70
2022-12-03T09:27:16.719Z,1.20
2022-12-03T09:29:45.926Z,0.68
2022-12-03T09:32:18.296Z,1.17
2022-12-03T09:34:48.194Z,1.60
2022-12-03T09:37:17.416Z,2.67
2022-12-03T09:39:46.654Z,3.28
2022-12-03T09:42:16.480Z,1.55
2022-12-03T09:44:46.332Z,2.50
2022-12-03T09:47:15.886Z,1.55
2022-12-03T09:49:45.666Z,2.33
2022-12-03T09:52:27.840Z,1.63
2022-12-03T09:54:57.347Z,1.95
2022-12-03T09:57:26.777Z,1.90
2022-12-03T09:59:56.525Z,2.53
2022-12-03T10:02:32.677Z,2.47
2022-12-03T10:05:01.921Z,2.50
2022-12-03T10:07:31.166Z,3.00
2022-12-03T10:10:00.655Z,3.95
2022-12-03T10:12:30.735Z,3.40
2022-12-03T10:14:59.956Z,4.85
2022-12-03T10:17:35.494Z,4.47
2022-12-03T10:20:05.388Z,4.90
2022-12-03T10:22:38.207Z,4.32
2022-12-03T10:25:13.435Z,4.40
2022-12-03T10:27:43.710Z,4.55
2022-12-03T10:30:24.335Z,5.10
2022-12-03T10:32:54.583Z,7.13
2022-12-03T10:35:44.769Z,11.25
2022-12-03T10:38:23.256Z,17.10
2022-12-03T10:40:52.904Z,18.15
2022-12-03T10:43:25.811Z,32.55
2022-12-03T10:46:04.130Z,17.23
2022-12-03T10:48:33.443Z,11.27
2022-12-03T10:51:24.132Z,7.45
2022-12-03T10:53:53.596Z,6.03
2022-12-03T10:56:29.602Z,9.18
2022-12-03T10:58:59.150Z,8.10
2022-12-03T11:01:28.887Z,7.22
2022-12-03T11:04:06.184Z,6.70
2022-12-03T11:06:35.377Z,7.63
2022-12-03T11:09:09.163Z,5.72
2022-12-03T11:11:38.738Z,6.07
2022-12-03T11:14:11.407Z,6.70
2022-12-03T11:16:43.237Z,5.07
2022-12-03T11:19:20.877Z,4.63
2022-12-03T11:22:08.022Z,7.65
2022-12-03T11:24:42.334Z,6.75
2022-12-03T11:27:11.465Z,7.15
2022-12-03T11:30:02.012Z,7.68
2022-12-03T11:32:40.595Z,8.80
2022-12-03T11:35:27.333Z,8.32
2022-12-03T11:37:56.705Z,7.30
2022-12-03T11:40:33.519Z,13.40
2022-12-03T11:43:06.447Z,8.18
2022-12-03T11:45:40.316Z,6.95
2022-12-03T11:48:17.561Z,7.18
2022-12-03T11:50:54.896Z,8.60
2022-12-03T11:53:28.245Z,8.27
2022-12-03T11:56:09.950Z,9.05
2022-12-03T11:58:44.112Z,10.18
2022-12-03T12:01:15.744Z,8.23
2022-12-03T12:03:51.677Z,9.68
2022-12-03T12:06:23.015Z,9.68
2022-12-03T12:09:01.661Z,8.50
2022-12-03T12:11:38.419Z,8.95
2022-12-03T12:14:11.045Z,8.95
2022-12-03T12:16:56.155Z,9.60
2022-12-03T12:19:35.755Z,7.88
2022-12-03T12:22:16.962Z,8.77
2022-12-03T12:24:52.502Z,9.02
2022-12-03T12:27:32.663Z,8.88
2022-12-03T12:30:10.932Z,8.93
2022-12-03T12:35:33.913Z,11.52
2022-12-03T12:38:11.712Z,12.02
2022-12-03T12:40:45.960Z,12.68
2022-12-03T12:43:27.025Z,10.07
2022-12-03T12:46:31.444Z,9.82
2022-12-03T12:49:00.038Z,8.73
2022-12-03T12:51:29.407Z,8.98
2022-12-03T12:53:59.713Z,8.48
2022-12-03T12:56:33.890Z,8.18
2022-12-03T12:59:30.630Z,9.18
2022-12-03T13:02:07.114Z,9.88
2022-12-03T13:04:41.178Z,8.77
2022-12-03T13:07:12.245Z,7.63
2022-12-03T13:09:41.871Z,7.65
2022-12-03T13:12:23.428Z,7.38
2022-12-03T13:14:53.674Z,8.88
2022-12-03T13:17:25.454Z,8.40
2022-12-03T13:20:06.648Z,7.90
2022-12-03T13:22:36.993Z,10.15
2022-12-03T13:26:00.274Z,9.75
2022-12-03T13:28:28.851Z,9.52
2022-12-03T13:31:19.594Z,8.40
2022-12-03T13:33:48.868Z,9.07
2022-12-03T13:36:21.359Z,9.65
2022-12-03T13:38:51.008Z,9.23
2022-12-03T13:41:41.261Z,8.38
2022-12-03T13:44:20.543Z,8.50
2022-12-03T13:46:49.731Z,7.70
2022-12-03T13:49:24.559Z,7.15
2022-12-03T13:51:53.789Z,6.90
2022-12-03T13:54:32.316Z,6.65
2022-12-03T13:57:03.616Z,6.43
2022-12-03T13:59:32.744Z,8.20
2022-12-03T14:02:01.961Z,6.85
2022-12-03T14:04:31.203Z,6.80
2022-12-03T14:07:00.338Z,6.65
2022-12-03T14:09:29.633Z,7.03
2022-12-03T14:12:17.336Z,7.97
2022-12-03T14:14:46.887Z,7.57
2022-12-03T14:17:16.169Z,7.57
2022-12-03T14:19:46.280Z,8.50
2022-12-03T14:22:15.413Z,8.00
2022-12-03T14:24:44.543Z,7.78
2022-12-03T14:27:13.695Z,7.82
2022-12-03T14:29:42.860Z,7.95
2022-12-03T14:32:12.103Z,7.03
2022-12-03T14:34:41.416Z,7.78
2022-12-03T14:37:10.556Z,6.90
2022-12-03T14:39:39.704Z,7.90
2022-12-03T14:42:14.914Z,7.07
2022-12-03T14:44:47.491Z,7.18
2022-12-03T14:47:19.501Z,8.10
2022-12-03T14:49:48.853Z,7.10
2022-12-03T14:52:19.067Z,6.93
2022-12-03T14:54:48.499Z,7.10
2022-12-03T14:57:18.321Z,7.25
2022-12-03T14:59:48.087Z,7.30
2022-12-03T15:02:17.288Z,7.40
2022-12-03T15:04:46.463Z,7.32
2022-12-03T15:07:15.678Z,7.90
2022-12-03T15:09:44.826Z,7.15
2022-12-03T15:12:14.937Z,6.95
2022-12-03T15:14:44.159Z,7.30
2022-12-03T15:17:13.344Z,6.78
2022-12-03T15:19:42.539Z,8.00
2022-12-03T15:22:11.731Z,8.43
2022-12-03T15:24:40.949Z,7.95
2022-12-03T15:27:10.078Z,7.85
2022-12-03T15:29:40.861Z,6.90
2022-12-03T15:32:10.645Z,7.55
2022-12-03T15:34:39.813Z,7.32
2022-12-03T15:37:10.134Z,7.65
2022-12-03T15:39:43.724Z,6.60
2022-12-03T15:42:17.291Z,7.88
2022-12-03T15:44:46.416Z,6.95
2022-12-03T15:47:15.587Z,6.75
2022-12-03T15:49:44.784Z,7.28
2022-12-03T15:52:13.902Z,6.95
2022-12-03T15:54:43.081Z,7.25
2022-12-03T15:57:12.312Z,7.00
2022-12-03T15:59:41.470Z,7.40
2022-12-03T16:02:11.147Z,7.40
2022-12-03T16:04:40.418Z,7.03
2022-12-03T16:07:10.333Z,6.50
2022-12-03T16:09:39.775Z,6.85
2022-12-03T16:12:09.418Z,6.57
2022-12-03T16:14:38.655Z,7.45
2022-12-03T16:17:07.949Z,7.18
2022-12-03T16:19:37.425Z,6.38
2022-12-03T16:22:06.623Z,7.55
2022-12-03T16:24:35.796Z,6.45
2022-12-03T16:27:05.288Z,7.65
2022-12-03T16:29:34.752Z,6.88
2022-12-03T16:32:04.267Z,7.35
2022-12-03T16:34:33.393Z,6.80
2022-12-03T16:37:02.634Z,7.60
2022-12-03T16:39:31.922Z,7.20
2022-12-03T16:42:01.022Z,7.07
2022-12-03T16:44:34.653Z,6.90
2022-12-03T16:47:03.838Z,8.23
2022-12-03T16:49:33.369Z,7.95
2022-12-03T16:52:02.835Z,7.55
2022-12-03T16:54:31.984Z,6.22
2022-12-03T16:57:01.152Z,6.60
2022-12-03T16:59:30.330Z,6.28
2022-12-03T17:01:59.604Z,6.72
2022-12-03T17:04:28.830Z,7.88
2022-12-03T17:06:58.161Z,6.50
2022-12-03T17:09:27.469Z,6.38
2022-12-03T17:11:57.060Z,6.53
2022-12-03T17:14:31.455Z,6.75
2022-12-03T17:17:02.442Z,7.15
2022-12-03T17:19:31.702Z,9.68
2022-12-03T17:22:00.856Z,7.25
2022-12-03T17:24:30.029Z,7.53
2022-12-03T17:26:59.235Z,6.55
2022-12-03T17:29:28.398Z,6.35
2022-12-03T17:31:57.669Z,6.38
2022-12-03T17:34:26.946Z,6.88
2022-12-03T17:36:56.108Z,6.70
2022-12-03T17:39:25.494Z,6.72
2022-12-03T17:41:54.659Z,6.75
2022-12-03T17:44:23.891Z,6.72
2022-12-03T17:46:53.286Z,6.72
2022-12-03T17:49:25.673Z,7.28
2022-12-03T17:51:57.552Z,7.28
2022-12-03T17:54:43.271Z,6.60
2022-12-03T17:57:15.980Z,6.93
2022-12-03T17:59:45.157Z,6.32
2022-12-03T18:02:14.564Z,6.30
2022-12-03T18:04:46.251Z,5.82
2022-12-03T18:07:15.386Z,6.65
2022-12-03T18:09:44.597Z,6.88
2022-12-03T18:12:15.001Z,5.63
2022-12-03T18:14:44.203Z,5.22
2022-12-03T18:17:13.308Z,5.88
2022-12-03T18:19:42.426Z,5.97
2022-12-03T18:22:13.664Z,6.07
2022-12-03T18:24:45.030Z,6.38
2022-12-03T18:27:15.505Z,6.40
2022-12-03T18:29:44.599Z,5.95
2022-12-03T18:32:27.844Z,6.20
2022-12-03T18:34:58.675Z,6.20
2022-12-03T18:37:32.781Z,6.43
2022-12-03T18:40:12.125Z,5.60
2022-12-03T18:42:42.079Z,6.43
2022-12-03T18:45:14.135Z,6.93
2022-12-03T18:47:43.906Z,5.80
2022-12-03T18:50:14.409Z,5.80
2022-12-03T18:52:43.515Z,6.40
2022-12-03T18:55:22.963Z,6.13
2022-12-03T18:57:52.104Z,5.72
2022-12-03T19:00:21.563Z,5.88
2022-12-03T19:03:05.857Z,5.68
2022-12-03T19:05:37.540Z,5.65
2022-12-03T19:08:15.759Z,6.10
2022-12-03T19:13:15.333Z,6.28
2022-12-03T19:15:44.446Z,6.32
2022-12-03T19:18:13.563Z,6.93
2022-12-03T19:20:44.235Z,6.03
2022-12-03T19:23:13.451Z,6.32
2022-12-03T19:25:45.782Z,6.15
2022-12-03T19:28:14.905Z,6.60
2022-12-03T19:30:44.036Z,6.05
2022-12-03T19:33:17.923Z,6.68
2022-12-03T19:35:47.332Z,6.20
2022-12-03T19:38:16.509Z,6.30
2022-12-03T19:40:45.691Z,5.68
2022-12-03T19:43:14.899Z,6.20
2022-12-03T19:45:44.121Z,6.05
2022-12-03T19:48:13.282Z,13.90
2022-12-03T19:51:13.260Z,8.82
2022-12-03T19:53:44.030Z,5.97
2022-12-03T19:56:19.451Z,5.53
2022-12-03T19:58:49.387Z,5.25
2022-12-03T20:01:25.475Z,5.60
2022-12-03T20:03:58.070Z,5.75
2022-12-03T20:06:31.598Z,5.63
2022-12-03T20:09:04.970Z,7.20
2022-12-03T20:11:37.231Z,5.70
2022-12-03T20:14:14.014Z,5.65
2022-12-03T20:16:44.961Z,5.30
2022-12-03T20:19:18.521Z,5.25
2022-12-03T20:21:47.969Z,5.57
2022-12-03T20:24:20.193Z,5.45
2022-12-03T20:26:49.596Z,5.32
2022-12-03T20:29:18.935Z,5.50
2022-12-03T20:31:48.130Z,4.78
2022-12-03T20:34:17.375Z,5.80
2022-12-03T20:36:46.507Z,5.38
2022-12-03T20:39:15.661Z,4.95
2022-12-03T20:41:44.904Z,5.18
2022-12-03T20:44:14.877Z,4.78
2022-12-03T20:46:44.082Z,5.20
2022-12-03T20:49:13.421Z,5.60
2022-12-03T20:51:43.607Z,5.20
2022-12-03T20:54:12.807Z,4.70
2022-12-03T20:56:42.972Z,5.07
2022-12-03T20:59:18.008Z,4.32
2022-12-03T21:01:47.358Z,4.88
2022-12-03T21:04:18.994Z,4.43
2022-12-03T21:06:48.268Z,4.20
2022-12-03T21:09:17.481Z,4.82
2022-12-03T21:11:48.199Z,3.78
2022-12-03T21:14:17.290Z,4.78
2022-12-03T21:17:07.855Z,4.80
2022-12-03T21:19:38.683Z,4.28
2022-12-03T21:22:08.402Z,5.32
2022-12-03T21:24:37.770Z,6.70
2022-12-03T21:27:06.866Z,6.03
2022-12-03T21:29:35.946Z,7.13
2022-12-03T21:32:05.208Z,6.25
2022-12-03T21:34:36.461Z,7.13
2022-12-03T21:37:06.156Z,6.88
2022-12-03T21:39:35.289Z,8.55
2022-12-03T21:42:34.275Z,7.35
2022-12-03T21:44:54.614Z,6.88
2022-12-03T21:47:23.864Z,7.70
2022-12-03T21:49:53.295Z,7.55
2022-12-03T21:52:22.643Z,7.75
2022-12-03T21:54:54.680Z,8.80
2022-12-03T21:57:23.974Z,8.52
2022-12-03T21:59:53.379Z,8.43
2022-12-03T22:02:23.294Z,8.27
2022-12-03T22:04:53.011Z,7.00
2022-12-03T22:07:22.123Z,7.72
2022-12-03T22:09:51.241Z,7.90
2022-12-03T22:12:21.734Z,8.20
2022-12-03T22:14:50.872Z,7.25
2022-12-03T22:17:19.976Z,7.88
2022-12-03T22:19:49.951Z,7.28
2022-12-03T22:22:19.563Z,7.53
2022-12-03T22:24:48.943Z,6.90
2022-12-03T22:27:18.047Z,7.55
2022-12-03T22:29:47.197Z,6.68
2022-12-03T22:32:16.323Z,8.68
2022-12-03T22:34:45.464Z,7.70
2022-12-03T22:37:14.590Z,8.95
2022-12-03T22:39:43.655Z,7.93
2022-12-03T22:42:12.830Z,9.18
2022-12-03T22:44:41.930Z,9.25
2022-12-03T22:47:11.015Z,8.82
2022-12-03T22:49:40.128Z,8.95
2022-12-03T22:52:09.935Z,8.80
2022-12-03T22:54:38.999Z,9.82
2022-12-03T22:57:08.135Z,10.13
2022-12-03T22:59:37.217Z,9.88
2022-12-03T23:02:06.495Z,9.75
2022-12-03T23:04:35.612Z,10.40
2022-12-03T23:07:04.692Z,9.98
2022-12-03T23:09:33.776Z,9.82
2022-12-03T23:12:02.884Z,9.77
2022-12-03T23:14:33.179Z,10.43
2022-12-03T23:17:02.310Z,10.73
2022-12-03T23:19:31.382Z,10.35
2022-12-03T23:22:00.526Z,11.15
2022-12-03T23:24:30.017Z,10.13
2022-12-03T23:26:59.128Z,10.93
2022-12-03T23:29:28.232Z,10.23
2022-12-03T23:31:59.105Z,10.00
2022-12-03T23:34:28.221Z,9.65
2022-12-03T23:36:57.349Z,10.52
2022-12-03T23:39:26.458Z,10.95
2022-12-03T23:41:55.556Z,10.93
2022-12-03T23:44:24.921Z,9.93
2022-12-03T23:46:54.064Z,10.60
2022-12-03T23:49:23.200Z,10.40
2022-12-03T23:51:52.306Z,10.80
2022-12-03T23:54:21.668Z,10.60
2022-12-03T23:56:50.817Z,12.02
2022-12-03T23:59:19.896Z,12.02
